Opal Express — V7KB8 — position and weather

sailwx.info

Track history (hours):
 
Tides and Currents Weather Stations Pressure Air Temp Water Temp Dewpoint Dewpoint Depression Visibility Wind Speed Wind Dir Waves Ship Positions

Opal Express

Last reported at 2016-Jul-04 08:16 UTC. Time now 2016-Jul-26 19:56 UTC.
Position N 10°15' W 080°03'.
Warning: this ship's position is 22 days out of date.

Length 179 m; draft 7.8 m.

Type: Tanker. MMSI: 538002500.

Date/timePositionNaut miles runAvg speedWind from/ knotsBaromVisibWave heightAir tempDewpointWater temp
2016-Jul-04 08:16N 10°15' W 080°03'1014.3
2016-Jul-04 07:33N 10°04' W 080°01'1414.3
2016-Jul-04 06:34N 09°50' W 079°59'1414.2
2016-Jul-04 05:33N 09°36' W 079°57'1313.5
2016-Jul-04 04:33N 09°23' W 079°55'6 6.3
2016-Jul-04 03:33N 09°17' W 079°55'1 0.7
2016-Jul-04 02:33N 09°16' W 079°55'7 7.3
2016-Jul-04 01:33N 09°11' W 079°50'9 8.7
2016-Jul-04 00:33N 09°07' W 079°42'6 5.5
2016-Jul-03 23:23N 09°02' W 079°38'13 0.8
2016-Jul-03 07:24N 08°50' W 079°31'0 0.0
2016-Jul-03 00:26N 08°50' W 079°31'0 0.0
2016-Jul-02 23:33N 08°50' W 079°31'0 0.0
2016-Jul-02 21:33N 08°50' W 079°31'12 0.6
2016-Jul-02 02:15N 08°41' W 079°23'1014.5
2016-Jul-02 01:33N 08°31' W 079°21'1414.5
2016-Jul-02 00:33N 08°17' W 079°22'  
Track history (hours):
 
Tides and Currents Weather Stations Pressure Air Temp Water Temp Dewpoint Dewpoint Depression Visibility Wind Speed Wind Dir Waves Ship Positions

Opal Express

Last reported at 2016-Jul-04 08:16 UTC. Time now 2016-Jul-26 19:56 UTC.
Position N 10°15' W 080°03'.
Warning: this ship's position is 22 days out of date.

Length 179 m; draft 7.8 m.

Type: Tanker. MMSI: 538002500.

Date/timePositionNaut miles runAvg speedWind from/ knotsBaromVisibWave heightAir tempDewpointWater temp
2016-Jul-04 08:16N 10°15' W 080°03'1014.3
2016-Jul-04 07:33N 10°04' W 080°01'1414.3
2016-Jul-04 06:34N 09°50' W 079°59'1414.2
2016-Jul-04 05:33N 09°36' W 079°57'1313.5
2016-Jul-04 04:33N 09°23' W 079°55'6 6.3
2016-Jul-04 03:33N 09°17' W 079°55'1 0.7
2016-Jul-04 02:33N 09°16' W 079°55'7 7.3
2016-Jul-04 01:33N 09°11' W 079°50'9 8.7
2016-Jul-04 00:33N 09°07' W 079°42'6 5.5
2016-Jul-03 23:23N 09°02' W 079°38'13 0.8
2016-Jul-03 07:24N 08°50' W 079°31'0 0.0
2016-Jul-03 00:26N 08°50' W 079°31'0 0.0
2016-Jul-02 23:33N 08°50' W 079°31'0 0.0
2016-Jul-02 21:33N 08°50' W 079°31'12 0.6
2016-Jul-02 02:15N 08°41' W 079°23'1014.5
2016-Jul-02 01:33N 08°31' W 079°21'1414.5
2016-Jul-02 00:33N 08°17' W 079°22'  

Dump ship's entire track history